ENCN/KRS METAR and TAF weather

Enter ICAO airport designator
Station Type Date Time Source
ENCN METAR 2019/10/21 22:50 UTC NOAA

ENCN 212250Z AUTO 25006KT 9999 OVC035/// 08/08 Q1017


Station Type Date Time Source
ENCN Decoded METAR 2019/10/21 22:50 UTC NOAA

Kristiansand / Kjevik, Norway (ENCN) 58-12N 008-05E 17M
Oct 21, 2019 - 06:50 PM EDT / 2019.10.21 2250 UTC
Wind: from the WSW (250 degrees) at 7 MPH (6 KT):0
Visibility: greater than 7 mile(s):0
Sky conditions: overcast
Temperature: 46 F (8 C)
Dew Point: 46 F (8 C)
Relative Humidity: 100%
Pressure (altimeter): 30.03 in. Hg (1017 hPa)
ob: ENCN 212250Z AUTO 25006KT 9999 OVC035/// 08/08 Q1017
cycle: 23

Station Type Date Time Source
ENCN TAF 2016/05/06 12:39 UTC NOAA

TAF TAF ENCN 061100Z 0612/0712 14008KT 9999 FEW040

Example: see airport list